18PN weather

Spud View Airport
Upper Strasburg, Pennsylvania, United States

Public forecast

Using degrees Fahrenheit for public forecast. Weather courtesy of forecast.io.

Closest aviation weather report (METAR) to Spud View Airport

Closest report is Hagerstown Regional Richard A Henson Field, 21.5 nm (39.9 km) S. Retrieved 2020/07/15 06:53 UTC (28 minutes ago):

KHGR 150653Z AUTO 00000KT 10SM CLR 21/14 A3011 RMK AO2 SLP197 T02110144

Closest aviation forecast (TAF) to Spud View Airport

Closest forecast is Altoona Blair County Airport, 31.9 nm (59.2 km) WNW. Retrieved 2020/07/15 06:30 UTC (51 minutes ago):

TAF KAOO 150528Z 1506/1606 00000KT 6SM BR SKC FM151400 15005KT P6SM SCT050